Manly, Iowa
Current Conditions -  °F | °C
As of 5:53 PM on Saturday 25 Oct 2014 (Local Time) from KMCW Reporting Station
Clear Clear  
Wind Chill: 58°   Ceiling: Unl
Heat Index: 58°   Visibility: 10mi
Dew Point: 34°   Wind: 10mph
Humidity: 41%   Direction: 330°NNW
Pressure: 30.07"   Gusts: NA
Location:  43.29°N, 93.2°W
Report Text: KMCW 252253Z AUTO 33009KT 10SM CLR 14/01 A3007 RMK AO2 SLP181 T01440011
Loading
Personal Weather Stations






























Interactive Weather Map
Tropical Storm Tracking
New forecast layout! Learn more

10-Day Weather Forecast

Advertisements
Track Severe Weather on mobile